Lakeport, New York
Current Conditions -  °F | °C
As of 1:07 PM on Thursday 29 Jan 2015 (Local Time) from KSYR Reporting Station
Light Snow Light Snow  
Wind Chill: 21°   Ceiling: 7500
Heat Index: 30°   Visibility: 9mi
Dew Point:   Wind: 10mph
Humidity: 41%   Direction: 100°E
Pressure: 29.95"   Gusts: NA
Location:  43.0618°N, 75.8688°W
Report Text: KSYR 291807Z 10009KT 9SM -SN SCT038 OVC075 M01/M13 A2995 RMK AO2 WSHFT 1747 PRESFR P0000 T10111128 $
Loading
Personal Weather Stations






























Interactive Weather Map New forecast layout! Learn more

10-Day Weather Forecast

Advertisements
Track Severe Weather on mobile